sensor_id;sensor_type;location;lat;lon;timestamp;P1;durP1;ratioP1;P2;durP2;ratioP2
8665;SDS011;4370;48.916;8.380;2023-05-10T00:00:15;1.00;;;1.00;;
8665;SDS011;4370;48.916;8.380;2023-05-10T00:02:42;2.90;;;1.20;;
8665;SDS011;4370;48.916;8.380;2023-05-10T00:05:08;1.57;;;1.10;;
8665;SDS011;4370;48.916;8.380;2023-05-10T00:07:34;2.30;;;1.10;;
8665;SDS011;4370;48.916;8.380;2023-05-10T00:10:00;1.73;;;1.30;;
8665;SDS011;4370;48.916;8.380;2023-05-10T00:12:26;1.90;;;1.33;;
8665;SDS011;4370;48.916;8.380;2023-05-10T00:14:52;1.30;;;1.20;;
8665;SDS011;4370;48.916;8.380;2023-05-10T00:17:18;1.33;;;1.23;;
8665;SDS011;4370;48.916;8.380;2023-05-10T00:19:44;1.17;;;1.10;;
8665;SDS011;4370;48.916;8.380;2023-05-10T00:22:10;2.60;;;1.30;;
8665;SDS011;4370;48.916;8.380;2023-05-10T00:24:36;2.47;;;1.20;;
8665;SDS011;4370;48.916;8.380;2023-05-10T00:27:01;1.80;;;1.23;;
8665;SDS011;4370;48.916;8.380;2023-05-10T00:29:28;1.97;;;1.30;;
8665;SDS011;4370;48.916;8.380;2023-05-10T00:31:54;1.33;;;1.23;;
8665;SDS011;4370;48.916;8.380;2023-05-10T00:34:21;1.20;;;1.10;;
8665;SDS011;4370;48.916;8.380;2023-05-10T00:36:47;1.50;;;1.30;;
8665;SDS011;4370;48.916;8.380;2023-05-10T00:39:13;2.50;;;1.20;;
8665;SDS011;4370;48.916;8.380;2023-05-10T00:41:39;1.57;;;1.40;;
8665;SDS011;4370;48.916;8.380;2023-05-10T00:44:05;1.90;;;1.30;;
8665;SDS011;4370;48.916;8.380;2023-05-10T00:46:31;1.33;;;1.23;;
8665;SDS011;4370;48.916;8.380;2023-05-10T00:48:57;1.53;;;1.40;;
8665;SDS011;4370;48.916;8.380;2023-05-10T00:51:23;5.33;;;1.60;;
8665;SDS011;4370;48.916;8.380;2023-05-10T00:53:49;2.80;;;1.40;;
8665;SDS011;4370;48.916;8.380;2023-05-10T00:56:16;2.17;;;1.97;;
8665;SDS011;4370;48.916;8.380;2023-05-10T00:58:42;1.60;;;1.50;;
8665;SDS011;4370;48.916;8.380;2023-05-10T01:01:08;1.60;;;1.50;;
8665;SDS011;4370;48.916;8.380;2023-05-10T01:03:34;1.73;;;1.63;;
8665;SDS011;4370;48.916;8.380;2023-05-10T01:06:01;1.57;;;1.47;;
8665;SDS011;4370;48.916;8.380;2023-05-10T01:08:28;1.60;;;1.50;;
8665;SDS011;4370;48.916;8.380;2023-05-10T01:10:54;1.80;;;1.70;;
8665;SDS011;4370;48.916;8.380;2023-05-10T01:13:30;3.13;;;1.80;;
8665;SDS011;4370;48.916;8.380;2023-05-10T01:15:57;2.93;;;1.67;;
8665;SDS011;4370;48.916;8.380;2023-05-10T01:18:23;1.90;;;1.70;;
8665;SDS011;4370;48.916;8.380;2023-05-10T01:21:04;2.03;;;1.70;;
8665;SDS011;4370;48.916;8.380;2023-05-10T01:32:12;1.50;;;1.40;;
8665;SDS011;4370;48.916;8.380;2023-05-10T01:34:59;1.40;;;1.30;;
8665;SDS011;4370;48.916;8.380;2023-05-10T01:38:07;1.90;;;1.50;;
8665;SDS011;4370;48.916;8.380;2023-05-10T01:46:35;1.90;;;1.60;;
8665;SDS011;4370;48.916;8.380;2023-05-10T01:49:02;3.07;;;1.80;;
8665;SDS011;4370;48.916;8.380;2023-05-10T01:51:37;3.30;;;1.87;;
8665;SDS011;4370;48.916;8.380;2023-05-10T01:54:09;2.60;;;2.20;;
8665;SDS011;4370;48.916;8.380;2023-05-10T01:56:38;1.87;;;1.60;;
8665;SDS011;4370;48.916;8.380;2023-05-10T01:59:05;3.57;;;2.00;;
8665;SDS011;4370;48.916;8.380;2023-05-10T02:01:32;2.10;;;2.00;;
8665;SDS011;4370;48.916;8.380;2023-05-10T02:04:01;2.03;;;1.83;;
8665;SDS011;4370;48.916;8.380;2023-05-10T02:06:29;1.90;;;1.70;;
8665;SDS011;4370;48.916;8.380;2023-05-10T02:08:56;4.40;;;1.97;;
8665;SDS011;4370;48.916;8.380;2023-05-10T02:11:22;1.77;;;1.67;;
8665;SDS011;4370;48.916;8.380;2023-05-10T02:13:50;3.70;;;2.30;;
8665;SDS011;4370;48.916;8.380;2023-05-10T02:16:18;2.47;;;2.00;;
8665;SDS011;4370;48.916;8.380;2023-05-10T02:18:48;2.70;;;2.13;;
8665;SDS011;4370;48.916;8.380;2023-05-10T02:21:15;2.10;;;1.90;;
8665;SDS011;4370;48.916;8.380;2023-05-10T02:23:41;1.93;;;1.70;;
8665;SDS011;4370;48.916;8.380;2023-05-10T02:26:08;2.50;;;2.30;;
8665;SDS011;4370;48.916;8.380;2023-05-10T02:28:35;3.07;;;2.07;;
8665;SDS011;4370;48.916;8.380;2023-05-10T02:31:02;3.00;;;2.27;;
8665;SDS011;4370;48.916;8.380;2023-05-10T02:33:28;2.53;;;2.33;;
8665;SDS011;4370;48.916;8.380;2023-05-10T02:35:56;4.77;;;2.27;;
8665;SDS011;4370;48.916;8.380;2023-05-10T02:38:22;2.77;;;2.30;;
8665;SDS011;4370;48.916;8.380;2023-05-10T02:40:48;2.20;;;2.00;;
8665;SDS011;4370;48.916;8.380;2023-05-10T02:43:14;4.30;;;2.57;;
8665;SDS011;4370;48.916;8.380;2023-05-10T02:45:42;2.80;;;2.53;;
8665;SDS011;4370;48.916;8.380;2023-05-10T02:48:09;3.07;;;2.50;;
8665;SDS011;4370;48.916;8.380;2023-05-10T02:50:35;6.13;;;2.70;;
8665;SDS011;4370;48.916;8.380;2023-05-10T02:53:04;4.47;;;2.47;;
8665;SDS011;4370;48.916;8.380;2023-05-10T02:55:38;2.23;;;2.03;;
8665;SDS011;4370;48.916;8.380;2023-05-10T02:58:06;4.10;;;2.30;;
8665;SDS011;4370;48.916;8.380;2023-05-10T03:00:32;5.00;;;2.33;;
8665;SDS011;4370;48.916;8.380;2023-05-10T03:02:58;3.93;;;2.27;;
8665;SDS011;4370;48.916;8.380;2023-05-10T03:05:24;3.50;;;2.20;;
8665;SDS011;4370;48.916;8.380;2023-05-10T03:07:50;2.67;;;2.27;;
8665;SDS011;4370;48.916;8.380;2023-05-10T03:10:17;3.00;;;2.10;;
8665;SDS011;4370;48.916;8.380;2023-05-10T03:13:32;2.33;;;2.13;;
8665;SDS011;4370;48.916;8.380;2023-05-10T03:18:54;4.10;;;2.50;;
8665;SDS011;4370;48.916;8.380;2023-05-10T03:21:19;2.77;;;2.37;;
8665;SDS011;4370;48.916;8.380;2023-05-10T03:23:50;3.10;;;2.40;;
8665;SDS011;4370;48.916;8.380;2023-05-10T03:26:20;2.40;;;2.03;;
8665;SDS011;4370;48.916;8.380;2023-05-10T03:28:50;2.00;;;1.90;;
8665;SDS011;4370;48.916;8.380;2023-05-10T03:31:17;4.57;;;2.10;;
8665;SDS011;4370;48.916;8.380;2023-05-10T03:33:49;2.50;;;2.10;;
8665;SDS011;4370;48.916;8.380;2023-05-10T03:36:16;2.67;;;1.97;;
8665;SDS011;4370;48.916;8.380;2023-05-10T03:38:42;5.77;;;2.20;;
8665;SDS011;4370;48.916;8.380;2023-05-10T03:41:08;7.43;;;2.10;;
8665;SDS011;4370;48.916;8.380;2023-05-10T03:43:34;2.93;;;1.73;;
8665;SDS011;4370;48.916;8.380;2023-05-10T03:46:02;2.43;;;1.60;;
8665;SDS011;4370;48.916;8.380;2023-05-10T03:48:28;3.37;;;1.93;;
8665;SDS011;4370;48.916;8.380;2023-05-10T03:50:53;6.90;;;2.10;;
8665;SDS011;4370;48.916;8.380;2023-05-10T03:53:19;2.10;;;1.90;;
8665;SDS011;4370;48.916;8.380;2023-05-10T03:55:45;2.20;;;2.00;;
8665;SDS011;4370;48.916;8.380;2023-05-10T03:58:11;3.63;;;1.90;;
8665;SDS011;4370;48.916;8.380;2023-05-10T04:00:37;2.43;;;2.10;;
8665;SDS011;4370;48.916;8.380;2023-05-10T04:03:08;3.10;;;1.97;;
8665;SDS011;4370;48.916;8.380;2023-05-10T04:05:34;1.83;;;1.73;;
8665;SDS011;4370;48.916;8.380;2023-05-10T04:08:00;1.60;;;1.50;;
8665;SDS011;4370;48.916;8.380;2023-05-10T04:10:26;1.80;;;1.70;;
8665;SDS011;4370;48.916;8.380;2023-05-10T04:12:51;2.47;;;1.77;;
8665;SDS011;4370;48.916;8.380;2023-05-10T04:15:17;3.00;;;1.90;;
8665;SDS011;4370;48.916;8.380;2023-05-10T04:17:44;2.63;;;2.10;;
8665;SDS011;4370;48.916;8.380;2023-05-10T04:20:10;2.07;;;1.87;;
8665;SDS011;4370;48.916;8.380;2023-05-10T04:22:36;4.13;;;2.00;;
8665;SDS011;4370;48.916;8.380;2023-05-10T04:25:02;2.20;;;2.00;;
8665;SDS011;4370;48.916;8.380;2023-05-10T04:27:28;3.27;;;2.13;;
8665;SDS011;4370;48.916;8.380;2023-05-10T04:29:54;2.40;;;2.20;;
8665;SDS011;4370;48.916;8.380;2023-05-10T04:32:20;2.43;;;2.00;;
8665;SDS011;4370;48.916;8.380;2023-05-10T04:34:46;2.20;;;2.00;;
8665;SDS011;4370;48.916;8.380;2023-05-10T04:37:12;3.27;;;2.07;;
8665;SDS011;4370;48.916;8.380;2023-05-10T04:39:38;2.20;;;2.00;;
8665;SDS011;4370;48.916;8.380;2023-05-10T04:42:04;4.57;;;2.20;;
8665;SDS011;4370;48.916;8.380;2023-05-10T04:44:30;2.40;;;2.20;;
8665;SDS011;4370;48.916;8.380;2023-05-10T04:46:56;3.37;;;2.53;;
8665;SDS011;4370;48.916;8.380;2023-05-10T04:49:22;2.23;;;1.97;;
8665;SDS011;4370;48.916;8.380;2023-05-10T04:51:48;4.73;;;2.23;;
8665;SDS011;4370;48.916;8.380;2023-05-10T04:54:14;3.40;;;2.43;;
8665;SDS011;4370;48.916;8.380;2023-05-10T04:56:41;2.00;;;1.80;;
8665;SDS011;4370;48.916;8.380;2023-05-10T04:59:07;2.63;;;2.13;;
8665;SDS011;4370;48.916;8.380;2023-05-10T05:01:33;2.20;;;2.00;;
8665;SDS011;4370;48.916;8.380;2023-05-10T05:03:58;3.70;;;2.00;;
8665;SDS011;4370;48.916;8.380;2023-05-10T05:06:24;2.03;;;1.87;;
8665;SDS011;4370;48.916;8.380;2023-05-10T05:08:52;2.20;;;2.00;;
8665;SDS011;4370;48.916;8.380;2023-05-10T05:11:18;3.07;;;2.23;;
8665;SDS011;4370;48.916;8.380;2023-05-10T05:13:44;3.50;;;2.23;;
8665;SDS011;4370;48.916;8.380;2023-05-10T05:16:10;2.33;;;2.13;;
8665;SDS011;4370;48.916;8.380;2023-05-10T05:18:36;2.03;;;1.93;;
8665;SDS011;4370;48.916;8.380;2023-05-10T05:21:02;1.93;;;1.73;;
8665;SDS011;4370;48.916;8.380;2023-05-10T05:23:27;3.00;;;1.97;;
8665;SDS011;4370;48.916;8.380;2023-05-10T05:25:53;2.60;;;1.70;;
8665;SDS011;4370;48.916;8.380;2023-05-10T05:28:19;2.73;;;1.80;;
8665;SDS011;4370;48.916;8.380;2023-05-10T05:30:46;3.20;;;2.10;;
8665;SDS011;4370;48.916;8.380;2023-05-10T05:33:13;2.70;;;2.00;;
8665;SDS011;4370;48.916;8.380;2023-05-10T05:35:40;2.00;;;1.80;;
8665;SDS011;4370;48.916;8.380;2023-05-10T05:38:06;3.87;;;1.87;;
8665;SDS011;4370;48.916;8.380;2023-05-10T05:40:31;2.47;;;1.73;;
8665;SDS011;4370;48.916;8.380;2023-05-10T05:42:57;2.67;;;1.73;;
8665;SDS011;4370;48.916;8.380;2023-05-10T05:45:23;2.43;;;1.90;;
8665;SDS011;4370;48.916;8.380;2023-05-10T05:47:49;1.53;;;1.43;;
8665;SDS011;4370;48.916;8.380;2023-05-10T05:50:15;2.57;;;1.80;;
8665;SDS011;4370;48.916;8.380;2023-05-10T05:52:41;1.70;;;1.60;;
8665;SDS011;4370;48.916;8.380;2023-05-10T05:55:07;3.33;;;1.80;;
8665;SDS011;4370;48.916;8.380;2023-05-10T05:57:33;1.80;;;1.70;;
8665;SDS011;4370;48.916;8.380;2023-05-10T05:59:59;1.70;;;1.60;;
8665;SDS011;4370;48.916;8.380;2023-05-10T06:02:25;1.83;;;1.53;;
8665;SDS011;4370;48.916;8.380;2023-05-10T06:04:50;7.70;;;1.63;;
8665;SDS011;4370;48.916;8.380;2023-05-10T06:07:16;1.53;;;1.43;;
8665;SDS011;4370;48.916;8.380;2023-05-10T06:09:42;3.40;;;1.70;;
8665;SDS011;4370;48.916;8.380;2023-05-10T06:12:08;2.07;;;1.50;;
8665;SDS011;4370;48.916;8.380;2023-05-10T06:14:34;3.87;;;1.63;;
8665;SDS011;4370;48.916;8.380;2023-05-10T06:17:00;1.50;;;1.40;;
8665;SDS011;4370;48.916;8.380;2023-05-10T06:19:28;2.43;;;1.57;;
8665;SDS011;4370;48.916;8.380;2023-05-10T06:21:54;1.63;;;1.43;;
8665;SDS011;4370;48.916;8.380;2023-05-10T06:24:21;1.93;;;1.63;;
8665;SDS011;4370;48.916;8.380;2023-05-10T06:26:47;2.70;;;1.40;;
8665;SDS011;4370;48.916;8.380;2023-05-10T06:29:14;1.20;;;1.10;;
8665;SDS011;4370;48.916;8.380;2023-05-10T06:31:40;2.17;;;1.37;;
8665;SDS011;4370;48.916;8.380;2023-05-10T06:34:06;1.80;;;1.40;;
8665;SDS011;4370;48.916;8.380;2023-05-10T06:36:33;3.20;;;1.50;;
8665;SDS011;4370;48.916;8.380;2023-05-10T06:38:58;1.53;;;1.30;;
8665;SDS011;4370;48.916;8.380;2023-05-10T06:41:24;3.53;;;1.50;;
8665;SDS011;4370;48.916;8.380;2023-05-10T06:43:50;1.83;;;1.30;;
8665;SDS011;4370;48.916;8.380;2023-05-10T06:46:16;1.40;;;1.30;;
8665;SDS011;4370;48.916;8.380;2023-05-10T06:48:42;2.87;;;1.43;;
8665;SDS011;4370;48.916;8.380;2023-05-10T06:51:08;2.37;;;1.30;;
8665;SDS011;4370;48.916;8.380;2023-05-10T06:53:34;1.93;;;1.30;;
8665;SDS011;4370;48.916;8.380;2023-05-10T06:56:00;1.20;;;1.10;;
8665;SDS011;4370;48.916;8.380;2023-05-10T06:58:28;3.00;;;1.00;;
8665;SDS011;4370;48.916;8.380;2023-05-10T07:00:54;2.43;;;1.27;;
8665;SDS011;4370;48.916;8.380;2023-05-10T07:03:20;1.30;;;1.20;;
8665;SDS011;4370;48.916;8.380;2023-05-10T07:05:46;3.33;;;1.20;;
8665;SDS011;4370;48.916;8.380;2023-05-10T07:08:12;1.20;;;1.10;;
8665;SDS011;4370;48.916;8.380;2023-05-10T07:10:38;2.30;;;1.20;;
8665;SDS011;4370;48.916;8.380;2023-05-10T07:13:04;2.77;;;0.90;;
8665;SDS011;4370;48.916;8.380;2023-05-10T07:15:30;2.30;;;1.10;;
8665;SDS011;4370;48.916;8.380;2023-05-10T07:17:56;2.70;;;1.00;;
8665;SDS011;4370;48.916;8.380;2023-05-10T07:20:22;1.47;;;1.00;;
8665;SDS011;4370;48.916;8.380;2023-05-10T07:22:48;3.80;;;1.07;;
8665;SDS011;4370;48.916;8.380;2023-05-10T07:25:14;1.90;;;0.90;;
8665;SDS011;4370;48.916;8.380;2023-05-10T07:27:40;1.30;;;1.17;;
8665;SDS011;4370;48.916;8.380;2023-05-10T07:30:06;1.00;;;0.90;;
8665;SDS011;4370;48.916;8.380;2023-05-10T07:32:32;5.33;;;1.00;;
8665;SDS011;4370;48.916;8.380;2023-05-10T07:34:58;1.90;;;1.00;;
8665;SDS011;4370;48.916;8.380;2023-05-10T07:37:24;1.00;;;0.80;;
8665;SDS011;4370;48.916;8.380;2023-05-10T07:39:50;1.17;;;0.90;;
8665;SDS011;4370;48.916;8.380;2023-05-10T07:42:16;1.10;;;0.90;;
8665;SDS011;4370;48.916;8.380;2023-05-10T07:44:41;0.90;;;0.80;;
8665;SDS011;4370;48.916;8.380;2023-05-10T07:47:08;1.00;;;1.00;;
8665;SDS011;4370;48.916;8.380;2023-05-10T07:49:34;0.80;;;0.80;;
8665;SDS011;4370;48.916;8.380;2023-05-10T07:52:00;1.00;;;0.80;;
8665;SDS011;4370;48.916;8.380;2023-05-10T07:54:26;1.10;;;1.00;;
8665;SDS011;4370;48.916;8.380;2023-05-10T07:56:52;1.07;;;0.97;;
8665;SDS011;4370;48.916;8.380;2023-05-10T07:59:18;0.80;;;0.80;;
8665;SDS011;4370;48.916;8.380;2023-05-10T08:01:45;1.30;;;0.90;;
8665;SDS011;4370;48.916;8.380;2023-05-10T08:04:11;0.70;;;0.70;;
8665;SDS011;4370;48.916;8.380;2023-05-10T08:06:37;2.23;;;0.80;;
8665;SDS011;4370;48.916;8.380;2023-05-10T08:09:02;1.40;;;0.90;;
8665;SDS011;4370;48.916;8.380;2023-05-10T08:11:28;1.30;;;0.90;;
8665;SDS011;4370;48.916;8.380;2023-05-10T08:13:54;1.07;;;0.73;;
8665;SDS011;4370;48.916;8.380;2023-05-10T08:16:20;1.43;;;0.87;;
8665;SDS011;4370;48.916;8.380;2023-05-10T08:18:46;1.80;;;0.90;;
8665;SDS011;4370;48.916;8.380;2023-05-10T08:21:12;0.80;;;0.80;;
8665;SDS011;4370;48.916;8.380;2023-05-10T08:23:39;1.43;;;0.83;;
8665;SDS011;4370;48.916;8.380;2023-05-10T08:26:05;1.70;;;0.93;;
8665;SDS011;4370;48.916;8.380;2023-05-10T08:28:31;0.70;;;0.67;;
8665;SDS011;4370;48.916;8.380;2023-05-10T08:30:57;1.40;;;0.90;;
8665;SDS011;4370;48.916;8.380;2023-05-10T08:33:23;1.97;;;0.90;;
8665;SDS011;4370;48.916;8.380;2023-05-10T08:35:49;1.67;;;0.80;;
8665;SDS011;4370;48.916;8.380;2023-05-10T08:38:15;0.80;;;0.80;;
8665;SDS011;4370;48.916;8.380;2023-05-10T08:40:42;2.63;;;0.80;;
8665;SDS011;4370;48.916;8.380;2023-05-10T08:43:09;1.53;;;0.80;;
8665;SDS011;4370;48.916;8.380;2023-05-10T08:45:39;0.90;;;0.80;;
8665;SDS011;4370;48.916;8.380;2023-05-10T08:48:06;2.50;;;0.90;;
8665;SDS011;4370;48.916;8.380;2023-05-10T08:50:36;1.50;;;0.90;;
8665;SDS011;4370;48.916;8.380;2023-05-10T08:53:06;3.57;;;0.80;;
8665;SDS011;4370;48.916;8.380;2023-05-10T08:55:35;1.27;;;0.90;;
8665;SDS011;4370;48.916;8.380;2023-05-10T08:58:03;0.87;;;0.77;;
8665;SDS011;4370;48.916;8.380;2023-05-10T09:00:32;1.13;;;0.80;;
8665;SDS011;4370;48.916;8.380;2023-05-10T09:02:58;1.23;;;0.80;;
8665;SDS011;4370;48.916;8.380;2023-05-10T09:05:25;1.00;;;0.90;;
8665;SDS011;4370;48.916;8.380;2023-05-10T09:07:51;1.07;;;0.90;;
8665;SDS011;4370;48.916;8.380;2023-05-10T09:10:18;1.27;;;0.80;;
8665;SDS011;4370;48.916;8.380;2023-05-10T09:12:44;0.80;;;0.80;;
8665;SDS011;4370;48.916;8.380;2023-05-10T09:15:10;1.47;;;0.90;;
8665;SDS011;4370;48.916;8.380;2023-05-10T09:17:37;1.43;;;0.80;;
8665;SDS011;4370;48.916;8.380;2023-05-10T09:20:05;0.83;;;0.80;;
8665;SDS011;4370;48.916;8.380;2023-05-10T09:22:31;0.80;;;0.80;;
8665;SDS011;4370;48.916;8.380;2023-05-10T09:25:05;3.47;;;1.20;;
8665;SDS011;4370;48.916;8.380;2023-05-10T09:27:31;1.40;;;0.90;;
8665;SDS011;4370;48.916;8.380;2023-05-10T09:29:57;1.87;;;0.80;;
8665;SDS011;4370;48.916;8.380;2023-05-10T09:32:35;1.70;;;1.10;;
8665;SDS011;4370;48.916;8.380;2023-05-10T09:35:09;4.60;;;1.20;;
8665;SDS011;4370;48.916;8.380;2023-05-10T09:37:35;4.40;;;1.33;;
8665;SDS011;4370;48.916;8.380;2023-05-10T09:40:03;3.00;;;1.07;;
8665;SDS011;4370;48.916;8.380;2023-05-10T09:42:31;3.43;;;1.10;;
8665;SDS011;4370;48.916;8.380;2023-05-10T09:45:06;1.50;;;1.10;;
8665;SDS011;4370;48.916;8.380;2023-05-10T09:47:32;1.97;;;1.17;;
8665;SDS011;4370;48.916;8.380;2023-05-10T09:49:59;1.10;;;0.97;;
8665;SDS011;4370;48.916;8.380;2023-05-10T09:55:19;2.30;;;1.20;;
8665;SDS011;4370;48.916;8.380;2023-05-10T09:57:46;4.07;;;1.30;;
8665;SDS011;4370;48.916;8.380;2023-05-10T10:00:19;3.53;;;1.10;;
8665;SDS011;4370;48.916;8.380;2023-05-10T10:02:53;1.90;;;1.33;;
8665;SDS011;4370;48.916;8.380;2023-05-10T10:05:20;2.97;;;1.40;;
8665;SDS011;4370;48.916;8.380;2023-05-10T10:07:46;2.00;;;1.40;;
8665;SDS011;4370;48.916;8.380;2023-05-10T10:10:14;1.53;;;1.30;;
8665;SDS011;4370;48.916;8.380;2023-05-10T10:12:40;2.17;;;1.23;;
8665;SDS011;4370;48.916;8.380;2023-05-10T10:15:07;5.70;;;1.60;;
8665;SDS011;4370;48.916;8.380;2023-05-10T10:17:34;2.33;;;1.53;;
8665;SDS011;4370;48.916;8.380;2023-05-10T10:20:02;2.57;;;1.63;;
8665;SDS011;4370;48.916;8.380;2023-05-10T10:22:28;2.83;;;1.57;;
8665;SDS011;4370;48.916;8.380;2023-05-10T10:24:53;3.47;;;1.80;;
8665;SDS011;4370;48.916;8.380;2023-05-10T10:27:23;1.97;;;1.43;;
8665;SDS011;4370;48.916;8.380;2023-05-10T10:35:33;3.03;;;1.90;;
8665;SDS011;4370;48.916;8.380;2023-05-10T10:37:59;2.80;;;1.90;;
8665;SDS011;4370;48.916;8.380;2023-05-10T10:40:26;3.03;;;1.90;;
8665;SDS011;4370;48.916;8.380;2023-05-10T10:42:56;2.63;;;1.80;;
8665;SDS011;4370;48.916;8.380;2023-05-10T10:45:23;2.60;;;1.67;;
8665;SDS011;4370;48.916;8.380;2023-05-10T10:47:53;2.93;;;1.80;;
8665;SDS011;4370;48.916;8.380;2023-05-10T10:50:47;6.20;;;1.90;;
8665;SDS011;4370;48.916;8.380;2023-05-10T10:53:21;1.93;;;1.60;;
8665;SDS011;4370;48.916;8.380;2023-05-10T10:55:47;3.83;;;1.83;;
8665;SDS011;4370;48.916;8.380;2023-05-10T10:58:29;1.90;;;1.70;;
8665;SDS011;4370;48.916;8.380;2023-05-10T11:01:12;2.67;;;2.00;;
8665;SDS011;4370;48.916;8.380;2023-05-10T11:04:16;4.80;;;2.00;;
8665;SDS011;4370;48.916;8.380;2023-05-10T11:06:40;3.60;;;1.67;;
8665;SDS011;4370;48.916;8.380;2023-05-10T11:09:07;6.17;;;1.60;;
8665;SDS011;4370;48.916;8.380;2023-05-10T11:11:34;2.27;;;1.60;;
8665;SDS011;4370;48.916;8.380;2023-05-10T11:14:04;3.40;;;1.43;;
8665;SDS011;4370;48.916;8.380;2023-05-10T11:16:41;1.83;;;1.20;;
8665;SDS011;4370;48.916;8.380;2023-05-10T11:19:08;3.13;;;1.20;;
8665;SDS011;4370;48.916;8.380;2023-05-10T11:21:45;2.93;;;1.33;;
8665;SDS011;4370;48.916;8.380;2023-05-10T11:24:13;1.47;;;1.03;;
8665;SDS011;4370;48.916;8.380;2023-05-10T11:26:40;2.03;;;1.13;;
8665;SDS011;4370;48.916;8.380;2023-05-10T11:29:06;2.33;;;1.13;;
8665;SDS011;4370;48.916;8.380;2023-05-10T11:31:32;1.50;;;1.00;;
8665;SDS011;4370;48.916;8.380;2023-05-10T11:33:58;1.30;;;1.03;;
8665;SDS011;4370;48.916;8.380;2023-05-10T11:36:27;2.67;;;1.20;;
8665;SDS011;4370;48.916;8.380;2023-05-10T11:38:54;2.23;;;1.10;;
8665;SDS011;4370;48.916;8.380;2023-05-10T11:41:21;2.33;;;0.90;;
8665;SDS011;4370;48.916;8.380;2023-05-10T11:43:51;1.30;;;0.93;;
8665;SDS011;4370;48.916;8.380;2023-05-10T11:46:19;2.53;;;1.13;;
8665;SDS011;4370;48.916;8.380;2023-05-10T11:48:48;2.40;;;0.90;;
8665;SDS011;4370;48.916;8.380;2023-05-10T11:51:21;2.77;;;1.27;;
8665;SDS011;4370;48.916;8.380;2023-05-10T11:53:48;3.83;;;1.00;;
8665;SDS011;4370;48.916;8.380;2023-05-10T11:56:15;3.53;;;1.00;;
8665;SDS011;4370;48.916;8.380;2023-05-10T11:58:41;2.53;;;1.17;;
8665;SDS011;4370;48.916;8.380;2023-05-10T12:01:07;3.70;;;1.30;;
8665;SDS011;4370;48.916;8.380;2023-05-10T12:03:34;1.50;;;0.93;;
8665;SDS011;4370;48.916;8.380;2023-05-10T12:06:00;1.30;;;1.10;;
8665;SDS011;4370;48.916;8.380;2023-05-10T12:08:27;1.57;;;1.10;;
8665;SDS011;4370;48.916;8.380;2023-05-10T12:11:03;1.07;;;0.90;;
8665;SDS011;4370;48.916;8.380;2023-05-10T12:13:30;1.70;;;1.00;;
8665;SDS011;4370;48.916;8.380;2023-05-10T12:15:59;2.23;;;1.30;;
8665;SDS011;4370;48.916;8.380;2023-05-10T12:18:25;1.10;;;0.90;;
8665;SDS011;4370;48.916;8.380;2023-05-10T12:20:51;0.83;;;0.83;;
8665;SDS011;4370;48.916;8.380;2023-05-10T12:23:21;1.33;;;0.80;;
8665;SDS011;4370;48.916;8.380;2023-05-10T12:25:47;2.10;;;0.90;;
8665;SDS011;4370;48.916;8.380;2023-05-10T12:28:12;0.80;;;0.80;;
8665;SDS011;4370;48.916;8.380;2023-05-10T12:30:38;1.77;;;0.90;;
8665;SDS011;4370;48.916;8.380;2023-05-10T12:35:43;2.00;;;0.70;;
8665;SDS011;4370;48.916;8.380;2023-05-10T12:41:00;3.33;;;1.10;;
8665;SDS011;4370;48.916;8.380;2023-05-10T12:43:27;1.77;;;0.80;;
8665;SDS011;4370;48.916;8.380;2023-05-10T12:45:53;1.57;;;0.90;;
8665;SDS011;4370;48.916;8.380;2023-05-10T12:48:19;4.10;;;0.80;;
8665;SDS011;4370;48.916;8.380;2023-05-10T12:50:46;0.97;;;0.80;;
8665;SDS011;4370;48.916;8.380;2023-05-10T12:53:13;3.60;;;1.10;;
8665;SDS011;4370;48.916;8.380;2023-05-10T12:55:43;1.57;;;1.03;;
8665;SDS011;4370;48.916;8.380;2023-05-10T12:58:09;1.17;;;1.00;;
8665;SDS011;4370;48.916;8.380;2023-05-10T13:00:35;5.07;;;1.03;;
8665;SDS011;4370;48.916;8.380;2023-05-10T13:03:02;1.53;;;1.07;;
8665;SDS011;4370;48.916;8.380;2023-05-10T13:05:30;1.07;;;1.00;;
8665;SDS011;4370;48.916;8.380;2023-05-10T13:07:56;2.30;;;0.90;;
8665;SDS011;4370;48.916;8.380;2023-05-10T13:10:22;1.30;;;1.07;;
8665;SDS011;4370;48.916;8.380;2023-05-10T13:12:48;1.67;;;0.90;;
8665;SDS011;4370;48.916;8.380;2023-05-10T13:15:14;3.90;;;1.10;;
8665;SDS011;4370;48.916;8.380;2023-05-10T13:17:40;1.33;;;1.00;;
8665;SDS011;4370;48.916;8.380;2023-05-10T13:20:07;2.77;;;1.10;;
8665;SDS011;4370;48.916;8.380;2023-05-10T13:22:34;2.03;;;1.10;;
8665;SDS011;4370;48.916;8.380;2023-05-10T13:25:00;1.60;;;1.10;;
8665;SDS011;4370;48.916;8.380;2023-05-10T13:27:26;1.73;;;1.10;;
8665;SDS011;4370;48.916;8.380;2023-05-10T13:29:52;1.20;;;1.00;;
8665;SDS011;4370;48.916;8.380;2023-05-10T13:32:18;1.10;;;1.00;;
8665;SDS011;4370;48.916;8.380;2023-05-10T13:34:44;3.87;;;1.00;;
8665;SDS011;4370;48.916;8.380;2023-05-10T13:37:10;3.40;;;1.00;;
8665;SDS011;4370;48.916;8.380;2023-05-10T13:39:36;1.63;;;1.00;;
8665;SDS011;4370;48.916;8.380;2023-05-10T13:42:02;4.20;;;0.70;;
8665;SDS011;4370;48.916;8.380;2023-05-10T13:44:28;2.17;;;1.00;;
8665;SDS011;4370;48.916;8.380;2023-05-10T13:46:55;2.50;;;1.00;;
8665;SDS011;4370;48.916;8.380;2023-05-10T13:49:21;3.13;;;1.10;;
8665;SDS011;4370;48.916;8.380;2023-05-10T13:51:47;1.30;;;1.00;;
8665;SDS011;4370;48.916;8.380;2023-05-10T13:54:13;5.27;;;1.20;;
8665;SDS011;4370;48.916;8.380;2023-05-10T13:56:39;1.37;;;0.93;;
8665;SDS011;4370;48.916;8.380;2023-05-10T13:59:06;1.63;;;1.00;;
8665;SDS011;4370;48.916;8.380;2023-05-10T14:01:32;0.97;;;0.90;;
8665;SDS011;4370;48.916;8.380;2023-05-10T14:03:58;2.40;;;0.90;;
8665;SDS011;4370;48.916;8.380;2023-05-10T14:06:24;2.03;;;1.00;;
8665;SDS011;4370;48.916;8.380;2023-05-10T14:08:51;0.90;;;0.83;;
8665;SDS011;4370;48.916;8.380;2023-05-10T14:11:18;0.70;;;0.70;;
8665;SDS011;4370;48.916;8.380;2023-05-10T14:13:44;3.53;;;0.83;;
8665;SDS011;4370;48.916;8.380;2023-05-10T14:16:10;1.67;;;1.00;;
8665;SDS011;4370;48.916;8.380;2023-05-10T14:18:36;2.63;;;0.90;;
8665;SDS011;4370;48.916;8.380;2023-05-10T14:21:02;1.23;;;1.10;;
8665;SDS011;4370;48.916;8.380;2023-05-10T14:23:28;1.13;;;0.90;;
8665;SDS011;4370;48.916;8.380;2023-05-10T14:25:55;1.47;;;0.90;;
8665;SDS011;4370;48.916;8.380;2023-05-10T14:28:21;1.27;;;0.70;;
8665;SDS011;4370;48.916;8.380;2023-05-10T14:30:47;2.13;;;0.90;;
8665;SDS011;4370;48.916;8.380;2023-05-10T14:33:13;2.23;;;0.87;;
8665;SDS011;4370;48.916;8.380;2023-05-10T14:35:39;1.73;;;0.80;;
8665;SDS011;4370;48.916;8.380;2023-05-10T14:38:05;1.77;;;0.90;;
8665;SDS011;4370;48.916;8.380;2023-05-10T14:40:31;1.97;;;1.10;;
8665;SDS011;4370;48.916;8.380;2023-05-10T14:42:58;1.93;;;1.00;;
8665;SDS011;4370;48.916;8.380;2023-05-10T14:45:24;1.37;;;0.90;;
8665;SDS011;4370;48.916;8.380;2023-05-10T14:47:50;1.13;;;1.03;;
8665;SDS011;4370;48.916;8.380;2023-05-10T14:50:16;1.00;;;0.70;;
8665;SDS011;4370;48.916;8.380;2023-05-10T14:52:42;3.20;;;0.73;;
8665;SDS011;4370;48.916;8.380;2023-05-10T14:55:09;1.20;;;0.70;;
8665;SDS011;4370;48.916;8.380;2023-05-10T14:57:35;1.13;;;0.87;;
8665;SDS011;4370;48.916;8.380;2023-05-10T15:00:01;1.93;;;0.77;;
8665;SDS011;4370;48.916;8.380;2023-05-10T15:02:27;2.20;;;0.83;;
8665;SDS011;4370;48.916;8.380;2023-05-10T15:04:53;0.60;;;0.60;;
8665;SDS011;4370;48.916;8.380;2023-05-10T15:07:19;3.57;;;0.87;;
8665;SDS011;4370;48.916;8.380;2023-05-10T15:09:45;3.57;;;0.80;;
8665;SDS011;4370;48.916;8.380;2023-05-10T15:12:11;2.23;;;1.10;;
8665;SDS011;4370;48.916;8.380;2023-05-10T15:14:37;3.43;;;1.20;;
8665;SDS011;4370;48.916;8.380;2023-05-10T15:17:04;1.33;;;1.00;;
8665;SDS011;4370;48.916;8.380;2023-05-10T15:19:31;1.90;;;0.80;;
8665;SDS011;4370;48.916;8.380;2023-05-10T15:21:58;0.70;;;0.70;;
8665;SDS011;4370;48.916;8.380;2023-05-10T15:24:23;0.73;;;0.73;;
8665;SDS011;4370;48.916;8.380;2023-05-10T15:26:49;1.63;;;0.70;;
8665;SDS011;4370;48.916;8.380;2023-05-10T15:29:15;2.47;;;0.83;;
8665;SDS011;4370;48.916;8.380;2023-05-10T15:31:45;0.90;;;0.80;;
8665;SDS011;4370;48.916;8.380;2023-05-10T15:34:12;0.77;;;0.73;;
8665;SDS011;4370;48.916;8.380;2023-05-10T15:36:39;1.33;;;1.03;;
8665;SDS011;4370;48.916;8.380;2023-05-10T15:39:04;4.57;;;0.90;;
8665;SDS011;4370;48.916;8.380;2023-05-10T15:41:31;2.30;;;1.00;;
8665;SDS011;4370;48.916;8.380;2023-05-10T15:43:57;1.50;;;0.80;;
8665;SDS011;4370;48.916;8.380;2023-05-10T15:46:27;0.60;;;0.60;;